Time;durP1;ratioP1;P1;durP2;ratioP2;P2;SDS_P1;SDS_P2;PMS_P1;PMS_P2;Temp;Humidity;BMP_temperature;BMP_pressure;BME280_temperature;BME280_humidity;BME280_pressure;Samples;Min_cycle;Max_cycle;Signal;HPM_P1;HPM_P2
2023/02/10 00:01:21;;;;;;;37.90;20.70;;;;;;;-1.14;60.00;101513.31;103095;1260;97771;-67
2023/02/10 00:03:49;;;;;;;37.30;20.00;;;;;;;-1.14;59.89;101510.23;103168;1255;107929;-66
2023/02/10 00:06:18;;;;;;;34.90;20.00;;;;;;;-1.17;60.20;101493.25;102988;1255;138118;-66
2023/02/10 00:08:49;;;;;;;38.50;20.30;;;;;;;-1.18;60.29;101488.95;103124;1255;111893;-66
2023/02/10 00:14:10;;;;;;;35.10;18.90;;;;;;;-1.20;60.44;101476.23;101570;1260;1003130;-66
2023/02/10 00:16:37;;;;;;;37.40;21.20;;;;;;;-1.23;60.54;101470.72;102929;1255;138594;-66
2023/02/10 00:19:07;;;;;;;35.60;20.20;;;;;;;-1.25;60.58;101467.06;103081;1255;97843;-66
2023/02/10 00:21:35;;;;;;;38.20;20.30;;;;;;;-1.27;60.48;101467.65;102428;1255;1003580;-66
2023/02/10 00:24:02;;;;;;;39.60;20.10;;;;;;;-1.28;60.81;101462.81;103055;1259;138432;-69
2023/02/10 00:26:29;;;;;;;39.00;20.60;;;;;;;-1.30;60.98;101456.11;102288;1260;1004228;-66
2023/02/10 00:28:56;;;;;;;43.40;21.60;;;;;;;-1.32;60.83;101453.48;103032;1257;138467;-66
2023/02/10 00:31:23;;;;;;;37.10;20.10;;;;;;;-1.33;61.02;101452.77;103196;1259;97811;-67
2023/02/10 00:33:50;;;;;;;36.90;20.50;;;;;;;-1.34;61.12;101459.89;102309;1254;1002766;-66
2023/02/10 00:36:18;;;;;;;37.80;20.80;;;;;;;-1.34;61.07;101460.40;103072;1255;139308;-67
2023/02/10 00:38:46;;;;;;;35.70;20.20;;;;;;;-1.34;61.13;101458.52;103055;1255;97865;-66
2023/02/10 00:41:15;;;;;;;35.30;20.20;;;;;;;-1.35;61.12;101463.79;102885;1255;138292;-67
2023/02/10 00:43:44;;;;;;;34.00;19.30;;;;;;;-1.35;61.06;101462.23;103131;1255;97690;-66
2023/02/10 00:46:15;;;;;;;38.30;20.60;;;;;;;-1.35;61.19;101465.82;102354;1258;1002885;-67
2023/02/10 00:48:42;;;;;;;37.90;20.40;;;;;;;-1.36;61.33;101463.41;102193;1259;1003059;-66
2023/02/10 00:51:18;;;;;;;40.10;19.70;;;;;;;-1.37;61.13;101464.23;102413;1260;1002623;-67
2023/02/10 00:53:49;;;;;;;38.60;20.40;;;;;;;-1.38;61.41;101451.56;102864;1256;139333;-66
2023/02/10 00:56:17;;;;;;;38.20;20.00;;;;;;;-1.38;61.33;101449.34;103109;1260;97804;-66
2023/02/10 00:58:45;;;;;;;34.30;19.10;;;;;;;-1.38;61.43;101447.80;103009;1254;138643;-66
2023/02/10 01:01:12;;;;;;;37.80;18.70;;;;;;;-1.38;61.38;101442.02;103037;1255;106898;-66
2023/02/10 01:03:40;;;;;;;35.10;19.00;;;;;;;-1.37;61.30;101444.27;103141;1255;97737;-67
2023/02/10 01:06:08;;;;;;;36.40;19.60;;;;;;;-1.36;61.37;101449.77;103012;1255;138480;-66
2023/02/10 01:08:35;;;;;;;37.20;19.60;;;;;;;-1.35;61.44;101457.27;101707;1255;1003495;-66
2023/02/10 01:11:05;;;;;;;38.70;19.80;;;;;;;-1.35;61.46;101454.38;103094;1260;139074;-66
2023/02/10 01:13:33;;;;;;;35.20;19.70;;;;;;;-1.35;61.34;101454.57;103284;1257;106822;-67
2023/02/10 01:16:01;;;;;;;36.80;19.60;;;;;;;-1.34;61.54;101456.48;103170;1255;97800;-66
2023/02/10 01:18:30;;;;;;;34.30;19.10;;;;;;;-1.34;61.27;101455.80;103062;1255;137932;-67
2023/02/10 01:20:57;;;;;;;33.30;18.80;;;;;;;-1.34;61.43;101454.27;103242;1255;97847;-67
2023/02/10 01:23:24;;;;;;;33.60;18.70;;;;;;;-1.35;61.36;101448.23;103100;1260;137897;-68
2023/02/10 01:25:52;;;;;;;34.90;18.90;;;;;;;-1.36;61.52;101446.34;103166;1260;106830;-68
2023/02/10 01:28:21;;;;;;;34.90;18.50;;;;;;;-1.36;61.62;101443.45;103156;1255;98309;-68
2023/02/10 01:30:48;;;;;;;34.30;18.70;;;;;;;-1.38;61.47;101442.02;103123;1255;107986;-68
2023/02/10 01:33:15;;;;;;;34.20;19.50;;;;;;;-1.40;61.62;101437.84;102389;1255;1003516;-68
2023/02/10 01:35:43;;;;;;;37.90;19.80;;;;;;;-1.44;61.52;101440.10;103104;1255;138385;-67
2023/02/10 01:38:10;;;;;;;35.10;19.60;;;;;;;-1.45;61.44;101443.44;103074;1259;107638;-68
2023/02/10 01:40:42;;;;;;;33.50;19.30;;;;;;;-1.48;61.68;101439.75;103018;1256;138309;-68
2023/02/10 01:43:16;;;;;;;36.60;18.50;;;;;;;-1.52;61.81;101446.30;103135;1255;108262;-68
2023/02/10 01:45:45;;;;;;;36.30;20.00;;;;;;;-1.56;61.80;101444.80;102297;1255;1003708;-68
2023/02/10 01:48:13;;;;;;;37.50;20.40;;;;;;;-1.59;61.99;101441.79;102205;1255;1003648;-68
2023/02/10 01:50:46;;;;;;;38.50;19.80;;;;;;;-1.62;61.83;101435.34;103025;1255;108374;-68
2023/02/10 01:53:14;;;;;;;37.60;19.70;;;;;;;-1.65;62.12;101435.39;103024;1255;138284;-67
2023/02/10 01:55:45;;;;;;;34.40;19.30;;;;;;;-1.66;62.16;101436.55;102330;1260;1002815;-68
2023/02/10 01:58:16;;;;;;;36.10;19.30;;;;;;;-1.68;62.48;101432.37;103077;1260;97798;-68
2023/02/10 02:00:47;;;;;;;38.40;19.70;;;;;;;-1.70;62.34;101429.41;101572;1255;1003226;-68
2023/02/10 02:03:15;;;;;;;38.40;19.80;;;;;;;-1.72;62.63;101433.61;103069;1260;107812;-68
2023/02/10 02:05:43;;;;;;;37.50;19.70;;;;;;;-1.74;62.42;101428.77;102295;1255;1002879;-68
2023/02/10 02:08:15;;;;;;;35.50;19.80;;;;;;;-1.76;62.61;101433.99;102350;1255;1003354;-67
2023/02/10 02:10:54;;;;;;;36.00;19.60;;;;;;;-1.76;62.47;101434.14;102957;1260;139115;-68
2023/02/10 02:13:30;;;;;;;36.50;19.60;;;;;;;-1.79;62.84;101428.60;103134;1255;111610;-67
2023/02/10 02:16:05;;;;;;;33.20;19.10;;;;;;;-1.81;62.82;101415.72;103120;1259;109318;-67
2023/02/10 02:18:41;;;;;;;44.10;19.80;;;;;;;-1.80;62.63;101416.10;103050;1255;138766;-67
2023/02/10 02:21:37;;;;;;;36.80;19.20;;;;;;;-1.80;62.91;101408.05;103115;1255;107050;-66
2023/02/10 02:24:22;;;;;;;34.10;19.40;;;;;;;-1.82;63.15;101411.23;102836;1259;138637;-67
2023/02/10 02:27:03;;;;;;;37.60;19.30;;;;;;;-1.82;63.17;101414.84;103004;1258;112675;-67
2023/02/10 02:29:57;;;;;;;34.50;19.40;;;;;;;-1.83;63.04;101423.15;102839;1262;138649;-67
2023/02/10 02:32:26;;;;;;;39.10;19.30;;;;;;;-1.83;62.96;101425.02;102901;1262;96926;-66
2023/02/10 02:34:58;;;;;;;35.60;19.30;;;;;;;-1.85;63.13;101427.52;101961;1260;1003409;-67
2023/02/10 02:37:29;;;;;;;33.90;19.50;;;;;;;-1.85;63.16;101435.02;102858;1259;97682;-67
2023/02/10 02:39:57;;;;;;;34.70;19.00;;;;;;;-1.86;63.37;101438.38;102915;1262;111587;-68
2023/02/10 02:42:26;;;;;;;37.50;19.50;;;;;;;-1.87;63.40;101442.42;102680;1262;138738;-67
2023/02/10 02:44:57;;;;;;;37.20;19.40;;;;;;;-1.88;63.16;101432.52;101894;1260;1003076;-67
2023/02/10 02:47:37;;;;;;;34.60;19.00;;;;;;;-1.90;63.45;101429.54;102741;1259;139033;-67
2023/02/10 02:50:18;;;;;;;34.50;19.50;;;;;;;-1.91;63.21;101427.80;102860;1259;99125;-67
2023/02/10 02:52:58;;;;;;;38.20;19.70;;;;;;;-1.91;63.40;101425.59;102786;1259;138927;-68
2023/02/10 02:55:32;;;;;;;36.60;19.80;;;;;;;-1.93;63.55;101424.01;102945;1258;107065;-67
2023/02/10 02:58:05;;;;;;;39.60;20.00;;;;;;;-1.93;63.56;101417.52;102952;1262;98026;-67
2023/02/10 03:00:34;;;;;;;36.80;20.50;;;;;;;-1.92;63.76;101422.14;102820;1259;138311;-67
2023/02/10 03:03:03;;;;;;;36.50;20.40;;;;;;;-1.91;63.48;101421.83;102368;1255;1003800;-67
2023/02/10 03:05:32;;;;;;;33.90;19.50;;;;;;;-1.90;63.87;101426.13;103038;1255;138727;-68
2023/02/10 03:08:03;;;;;;;35.70;20.90;;;;;;;-1.89;63.58;101425.84;103117;1260;107412;-67
2023/02/10 03:10:30;;;;;;;34.90;19.90;;;;;;;-1.88;63.71;101428.42;103060;1255;142133;-68
2023/02/10 03:12:57;;;;;;;36.50;19.40;;;;;;;-1.87;63.98;101425.92;103039;1257;107337;-68
2023/02/10 03:15:24;;;;;;;36.20;20.10;;;;;;;-1.86;63.71;101429.20;103068;1257;97857;-66
2023/02/10 03:17:51;;;;;;;39.70;21.60;;;;;;;-1.83;63.51;101424.69;103053;1255;138065;-68
2023/02/10 03:20:19;;;;;;;36.60;20.20;;;;;;;-1.81;63.96;101419.96;103123;1255;107766;-66
2023/02/10 03:22:46;;;;;;;35.80;19.60;;;;;;;-1.80;63.71;101414.21;102952;1255;138281;-66
2023/02/10 03:25:13;;;;;;;36.70;19.80;;;;;;;-1.80;63.91;101411.84;103024;1255;109024;-66
2023/02/10 03:27:40;;;;;;;37.00;20.00;;;;;;;-1.80;63.79;101407.73;102350;1260;1002938;-66
2023/02/10 03:30:12;;;;;;;38.40;20.80;;;;;;;-1.83;63.84;101412.42;102947;1255;139079;-67
2023/02/10 03:32:39;;;;;;;36.90;19.90;;;;;;;-1.85;63.69;101416.61;103025;1258;106557;-67
2023/02/10 03:35:07;;;;;;;37.40;19.30;;;;;;;-1.85;63.87;101419.83;102256;1260;1002912;-66
2023/02/10 03:37:34;;;;;;;33.60;19.00;;;;;;;-1.87;63.90;101423.52;103109;1255;106996;-67
2023/02/10 03:40:01;;;;;;;35.40;19.50;;;;;;;-1.88;63.63;101419.04;103058;1255;97860;-66
2023/02/10 03:42:28;;;;;;;37.70;19.30;;;;;;;-1.89;63.86;101414.25;103027;1256;138585;-67
2023/02/10 03:44:56;;;;;;;37.80;19.10;;;;;;;-1.90;63.97;101413.01;103123;1261;107624;-67
2023/02/10 03:47:23;;;;;;;35.80;18.80;;;;;;;-1.91;63.94;101407.53;103079;1256;142118;-66
2023/02/10 03:49:50;;;;;;;36.80;19.60;;;;;;;-1.92;63.90;101401.71;103191;1255;108020;-66
2023/02/10 03:52:17;;;;;;;36.00;19.10;;;;;;;-1.94;63.91;101398.55;103122;1260;96691;-68
2023/02/10 03:54:44;;;;;;;36.20;18.50;;;;;;;-1.96;64.04;101398.48;103025;1259;138275;-66
2023/02/10 03:57:12;;;;;;;34.10;19.10;;;;;;;-1.96;64.01;101404.94;103066;1255;107300;-69
2023/02/10 03:59:40;;;;;;;33.60;19.10;;;;;;;-1.97;64.10;101415.64;103087;1255;138648;-69
2023/02/10 04:02:07;;;;;;;33.20;19.10;;;;;;;-1.99;64.14;101422.86;102386;1255;1003803;-67
2023/02/10 04:04:34;;;;;;;35.30;18.80;;;;;;;-2.02;64.01;101426.19;102322;1259;1003071;-67
2023/02/10 04:07:01;;;;;;;36.90;18.80;;;;;;;-2.03;64.13;101426.15;103166;1260;110924;-67
2023/02/10 04:09:28;;;;;;;35.10;18.40;;;;;;;-2.05;64.42;101424.54;102355;1259;1002842;-67
2023/02/10 04:11:58;;;;;;;32.50;18.90;;;;;;;-2.07;64.39;101424.97;103033;1256;139382;-66
2023/02/10 04:14:25;;;;;;;36.70;18.90;;;;;;;-2.08;64.17;101426.45;103124;1255;107680;-67
2023/02/10 04:16:52;;;;;;;34.10;18.60;;;;;;;-2.11;64.32;101419.86;103107;1255;138911;-67
2023/02/10 04:19:19;;;;;;;35.50;18.90;;;;;;;-2.12;64.28;101425.65;103069;1260;112094;-67
2023/02/10 04:21:46;;;;;;;31.30;18.70;;;;;;;-2.13;64.26;101429.52;103062;1255;106715;-66
2023/02/10 04:24:13;;;;;;;31.80;18.20;;;;;;;-2.14;64.34;101433.59;103057;1254;138710;-67
2023/02/10 04:26:40;;;;;;;35.80;19.00;;;;;;;-2.16;64.46;101434.02;103155;1256;107865;-67
2023/02/10 04:29:07;;;;;;;37.20;19.20;;;;;;;-2.18;64.27;101433.43;103010;1255;139004;-67
2023/02/10 04:31:34;;;;;;;36.30;19.90;;;;;;;-2.17;64.65;101437.52;103142;1260;111183;-67
2023/02/10 04:34:01;;;;;;;35.30;19.40;;;;;;;-2.18;64.56;101442.45;103112;1255;106000;-68
2023/02/10 04:36:28;;;;;;;33.70;19.40;;;;;;;-2.21;64.62;101439.80;101553;1255;1003223;-68
2023/02/10 04:38:55;;;;;;;33.90;19.20;;;;;;;-2.25;64.41;101439.12;103184;1256;108991;-67
2023/02/10 04:41:25;;;;;;;37.30;19.30;;;;;;;-2.27;64.72;101439.91;103073;1257;138241;-68
2023/02/10 04:43:52;;;;;;;35.70;19.20;;;;;;;-2.30;64.96;101437.58;102354;1260;1003100;-68
2023/02/10 04:46:19;;;;;;;35.20;19.30;;;;;;;-2.32;64.92;101437.98;102956;1260;108909;-67
2023/02/10 04:48:46;;;;;;;36.40;19.50;;;;;;;-2.34;65.16;101430.95;103061;1256;138075;-66
2023/02/10 04:51:14;;;;;;;34.30;18.90;;;;;;;-2.32;64.99;101424.02;103121;1261;107893;-67
2023/02/10 04:53:43;;;;;;;35.80;19.90;;;;;;;-2.30;65.12;101423.08;103011;1255;139986;-67
2023/02/10 04:56:10;;;;;;;39.20;20.30;;;;;;;-2.27;65.26;101417.41;102500;1260;1003117;-67
2023/02/10 04:58:40;;;;;;;37.70;20.10;;;;;;;-2.24;65.45;101418.21;102234;1256;1002489;-67
2023/02/10 05:01:18;;;;;;;34.60;19.20;;;;;;;-2.18;65.09;101419.43;103102;1255;97890;-67
2023/02/10 05:03:50;;;;;;;30.30;18.10;;;;;;;-2.13;65.04;101423.55;103149;1259;106812;-67
2023/02/10 05:06:27;;;;;;;34.70;19.40;;;;;;;-2.09;65.39;101422.88;102306;1258;1003012;-67
2023/02/10 05:09:13;;;;;;;36.10;18.90;;;;;;;-2.04;65.14;101417.75;102391;1260;1003403;-67
2023/02/10 05:12:00;;;;;;;35.00;18.40;;;;;;;-2.00;65.15;101409.57;102246;1257;1002937;-67
2023/02/10 05:14:28;;;;;;;36.20;19.10;;;;;;;-1.95;64.95;101403.80;102364;1255;1002879;-67
2023/02/10 05:16:55;;;;;;;30.70;19.00;;;;;;;-1.91;65.04;101405.98;103049;1255;139109;-67
2023/02/10 05:19:22;;;;;;;35.20;18.80;;;;;;;-1.89;64.97;101404.69;103129;1255;97694;-67
2023/02/10 05:21:49;;;;;;;34.00;18.70;;;;;;;-1.86;64.79;101404.64;103159;1261;110768;-67
2023/02/10 05:24:16;;;;;;;36.90;19.20;;;;;;;-1.84;64.91;101404.02;101547;1255;1003109;-67
2023/02/10 05:26:43;;;;;;;34.10;18.40;;;;;;;-1.82;65.01;101400.18;103244;1255;98277;-67
2023/02/10 05:29:10;;;;;;;36.70;19.10;;;;;;;-1.79;65.02;101394.12;103011;1255;138447;-67
2023/02/10 05:31:38;;;;;;;33.40;18.70;;;;;;;-1.77;65.25;101387.56;103231;1259;98358;-67
2023/02/10 05:34:08;;;;;;;35.70;19.50;;;;;;;-1.75;64.82;101410.66;103160;1255;111845;-67
2023/02/10 05:36:35;;;;;;;35.00;19.70;;;;;;;-1.73;64.87;101409.85;103014;1260;138101;-68
2023/02/10 05:41:46;;;;;;;34.50;19.50;;;;;;;-1.70;64.99;101417.83;103052;1255;137941;-67
2023/02/10 05:44:13;;;;;;;36.90;20.40;;;;;;;-1.70;65.01;101415.09;103027;1255;97940;-67
2023/02/10 05:46:50;;;;;;;36.50;20.20;;;;;;;-1.70;65.12;101416.48;103086;1259;138162;-66
2023/02/10 05:49:18;;;;;;;36.60;20.10;;;;;;;-1.67;65.03;101420.31;102999;1255;107710;-65
2023/02/10 05:51:45;;;;;;;34.00;18.80;;;;;;;-1.66;65.44;101420.52;101687;1261;1003435;-66
2023/02/10 05:54:13;;;;;;;34.30;19.00;;;;;;;-1.64;65.42;101423.65;103050;1258;138499;-67
2023/02/10 05:56:42;;;;;;;35.20;19.90;;;;;;;-1.65;65.28;101431.48;103143;1255;97923;-66
2023/02/10 05:59:09;;;;;;;39.30;19.60;;;;;;;-1.65;65.37;101431.82;103355;1255;138065;-67
2023/02/10 06:01:50;;;;;;;34.70;19.20;;;;;;;-1.64;65.58;101430.33;101626;1255;1002772;-67
2023/02/10 06:04:20;;;;;;;38.40;20.00;;;;;;;-1.64;65.62;101426.20;103092;1255;97804;-66
2023/02/10 06:06:51;;;;;;;36.90;19.80;;;;;;;-1.63;65.66;101424.91;103129;1255;107947;-67
2023/02/10 06:09:18;;;;;;;36.90;20.00;;;;;;;-1.60;65.82;101425.19;103080;1255;97942;-67
2023/02/10 06:11:45;;;;;;;37.50;20.30;;;;;;;-1.58;65.78;101424.08;102948;1255;138655;-69
2023/02/10 06:14:12;;;;;;;37.70;20.00;;;;;;;-1.57;65.95;101428.70;102437;1258;1002718;-70
2023/02/10 06:16:39;;;;;;;37.30;20.00;;;;;;;-1.57;65.76;101431.61;102991;1260;140860;-69
2023/02/10 06:19:09;;;;;;;36.80;19.60;;;;;;;-1.56;65.95;101428.23;102352;1261;1003254;-71
2023/02/10 06:21:39;;;;;;;36.50;19.30;;;;;;;-1.54;66.15;101432.23;103090;1255;97691;-68
2023/02/10 06:24:06;;;;;;;37.10;20.40;;;;;;;-1.51;66.14;101432.85;102980;1255;138883;-71
2023/02/10 06:26:33;;;;;;;35.60;20.50;;;;;;;-1.48;66.22;101433.80;103182;1261;107156;-67
2023/02/10 06:29:10;;;;;;;38.70;21.80;;;;;;;-1.44;66.30;101429.35;103087;1255;138864;-68
2023/02/10 06:31:37;;;;;;;38.00;21.30;;;;;;;-1.38;66.33;101431.25;102458;1256;1002505;-67
2023/02/10 06:34:08;;;;;;;37.30;21.10;;;;;;;-1.32;66.24;101431.12;103197;1260;97862;-66
2023/02/10 06:36:35;;;;;;;34.60;19.80;;;;;;;-1.27;66.49;101431.98;103172;1256;138868;-67
2023/02/10 06:39:02;;;;;;;37.50;20.20;;;;;;;-1.23;66.15;101433.67;103075;1255;109505;-67
2023/02/10 06:41:29;;;;;;;36.90;20.50;;;;;;;-1.15;66.31;101438.52;102338;1255;1015577;-68
2023/02/10 06:43:59;;;;;;;34.70;19.40;;;;;;;-1.09;66.28;101434.83;102304;1255;1003289;-66
2023/02/10 06:46:27;;;;;;;35.00;19.90;;;;;;;-1.05;66.26;101434.63;103145;1255;97780;-68
2023/02/10 06:48:54;;;;;;;36.60;20.10;;;;;;;-0.98;66.23;101436.91;103237;1255;110577;-67
2023/02/10 06:51:22;;;;;;;35.50;20.30;;;;;;;-0.90;66.17;101436.83;103039;1259;108114;-67
2023/02/10 06:53:49;;;;;;;38.70;20.30;;;;;;;-0.82;66.08;101439.13;103026;1255;138671;-67
2023/02/10 06:56:16;;;;;;;35.10;20.20;;;;;;;-0.68;66.03;101443.03;101582;1258;1003698;-67
2023/02/10 06:58:43;;;;;;;38.00;20.00;;;;;;;-0.46;65.90;101444.23;102840;1255;138980;-67
2023/02/10 07:01:13;;;;;;;36.00;19.70;;;;;;;-0.21;65.66;101444.00;103732;1255;1002161;-73
2023/02/10 07:03:40;;;;;;;37.40;21.00;;;;;;;0.11;66.00;101436.55;103049;1256;107505;-71
2023/02/10 07:06:08;;;;;;;35.00;20.40;;;;;;;0.49;66.07;101437.31;102972;1255;138132;-70
2023/02/10 07:08:38;;;;;;;37.80;20.30;;;;;;;0.78;65.03;101439.80;103035;1258;107532;-72
2023/02/10 07:11:05;;;;;;;36.80;19.50;;;;;;;0.99;64.06;101445.67;102874;1255;137985;-72
2023/02/10 07:13:52;;;;;;;37.80;20.70;;;;;;;1.15;63.38;101449.52;102246;1259;1003804;-73
2023/02/10 07:16:24;;;;;;;33.40;20.00;;;;;;;1.22;62.90;101450.55;102978;1256;106716;-72
2023/02/10 07:18:52;;;;;;;35.00;21.10;;;;;;;1.25;62.74;101451.63;103019;1255;97805;-74
2023/02/10 07:21:30;;;;;;;32.40;21.00;;;;;;;1.34;62.66;101453.23;103072;1259;109470;-71
2023/02/10 07:24:00;;;;;;;35.20;20.90;;;;;;;1.42;62.61;101453.09;102420;1260;1003650;-73
2023/02/10 07:26:28;;;;;;;34.10;21.20;;;;;;;1.52;62.21;101456.77;103181;1259;110773;-73
2023/02/10 07:28:57;;;;;;;34.70;21.50;;;;;;;1.48;61.79;101459.59;102233;1260;1002888;-72
2023/02/10 07:31:24;;;;;;;37.20;22.10;;;;;;;1.51;61.98;101456.73;103152;1255;98070;-77
2023/02/10 07:33:52;;;;;;;39.20;22.20;;;;;;;1.69;61.90;101459.76;103061;1256;109006;-76
2023/02/10 07:36:19;;;;;;;35.90;21.80;;;;;;;1.90;62.12;101465.89;103060;1255;137917;-77
2023/02/10 07:38:46;;;;;;;35.60;21.20;;;;;;;2.14;61.93;101463.15;102498;1260;1003386;-75
2023/02/10 07:41:15;;;;;;;34.00;21.40;;;;;;;2.33;61.53;101462.89;103078;1255;138136;-75
2023/02/10 07:43:43;;;;;;;37.80;21.50;;;;;;;2.57;61.38;101463.37;103164;1255;97826;-76
2023/02/10 07:46:23;;;;;;;35.50;21.40;;;;;;;2.83;60.30;101455.96;103156;1257;107681;-75
2023/02/10 07:48:50;;;;;;;40.10;22.30;;;;;;;3.03;59.96;101455.48;102950;1258;137647;-75
2023/02/10 07:51:17;;;;;;;35.80;21.50;;;;;;;3.23;59.71;101455.33;103106;1259;110885;-74
2023/02/10 07:53:44;;;;;;;38.80;22.80;;;;;;;3.54;59.63;101449.80;102972;1258;137786;-72
2023/02/10 07:56:11;;;;;;;35.10;22.00;;;;;;;3.75;59.14;101451.67;103112;1255;97675;-74
2023/02/10 07:58:38;;;;;;;34.70;22.10;;;;;;;3.88;58.70;101455.46;103006;1259;137945;-72
2023/02/10 08:01:10;;;;;;;38.70;21.60;;;;;;;4.03;58.01;101456.71;102943;1260;97837;-75
2023/02/10 08:03:47;;;;;;;35.60;21.90;;;;;;;4.11;57.92;101450.10;102987;1256;111286;-73
2023/02/10 08:06:19;;;;;;;34.90;23.10;;;;;;;4.10;57.58;101450.95;102885;1255;138732;-73
2023/02/10 08:09:07;;;;;;;36.40;23.70;;;;;;;4.01;57.52;101446.37;103017;1259;97874;-72
2023/02/10 08:11:35;;;;;;;34.40;22.70;;;;;;;3.96;57.61;101441.48;102193;1256;1003359;-72
2023/02/10 08:14:04;;;;;;;35.60;22.70;;;;;;;3.89;57.57;101441.72;103038;1261;97830;-73
2023/02/10 08:16:32;;;;;;;34.50;23.10;;;;;;;3.78;57.72;101442.42;102186;1261;1002553;-70
2023/02/10 08:18:59;;;;;;;42.50;22.60;;;;;;;3.68;57.71;101444.50;102941;1269;107780;-72
2023/02/10 08:21:26;;;;;;;40.10;24.40;;;;;;;3.46;57.95;101450.88;102927;1261;100303;-71
2023/02/10 08:23:54;;;;;;;33.30;22.20;;;;;;;3.19;58.21;101447.51;102241;1256;1003298;-71
2023/02/10 08:26:32;;;;;;;36.60;22.50;;;;;;;2.89;58.69;101451.61;103083;1261;97773;-72
2023/02/10 08:28:59;;;;;;;34.40;22.00;;;;;;;2.64;59.15;101452.67;103002;1255;137876;-70
2023/02/10 08:31:26;;;;;;;36.90;23.10;;;;;;;2.37;59.29;101451.45;103056;1259;107830;-70
2023/02/10 08:34:03;;;;;;;38.60;23.50;;;;;;;2.11;59.92;101466.88;103122;1255;97790;-69
2023/02/10 08:36:30;;;;;;;41.60;24.20;;;;;;;1.88;60.37;101466.70;103000;1255;137721;-73
2023/02/10 08:39:00;;;;;;;41.10;24.70;;;;;;;1.72;60.80;101463.93;103108;1255;97913;-72
2023/02/10 08:41:30;;;;;;;38.70;23.00;;;;;;;1.54;61.38;101454.76;103023;1259;137773;-70
2023/02/10 08:43:57;;;;;;;43.90;24.50;;;;;;;1.37;61.81;101457.77;103125;1261;107723;-70
2023/02/10 08:46:24;;;;;;;41.00;24.60;;;;;;;1.22;62.20;101459.12;103126;1260;96606;-71
2023/02/10 08:48:51;;;;;;;41.70;25.10;;;;;;;1.11;62.67;101463.48;102992;1256;138925;-69
2023/02/10 08:51:18;;;;;;;44.90;24.60;;;;;;;1.01;63.01;101465.27;103067;1262;97660;-66
2023/02/10 08:53:45;;;;;;;42.70;24.30;;;;;;;0.90;63.39;101467.86;103011;1258;138409;-67
2023/02/10 08:56:16;;;;;;;40.30;23.80;;;;;;;0.83;63.66;101468.03;103106;1261;107680;-68
2023/02/10 08:58:47;;;;;;;46.80;25.10;;;;;;;0.77;64.00;101471.98;102316;1256;1003358;-66
2023/02/10 09:01:16;;;;;;;42.30;23.60;;;;;;;0.72;64.32;101482.95;103024;1256;106775;-68
2023/02/10 09:03:44;;;;;;;43.70;24.50;;;;;;;0.67;64.61;101488.13;102333;1255;1002926;-66
2023/02/10 09:06:19;;;;;;;44.50;24.70;;;;;;;0.64;64.87;101490.61;102978;1256;138734;-68
2023/02/10 09:08:47;;;;;;;45.90;26.40;;;;;;;0.63;65.20;101493.65;103080;1258;107042;-69
2023/02/10 09:11:15;;;;;;;43.50;24.90;;;;;;;0.59;65.62;101498.54;102920;1259;138434;-67
2023/02/10 09:13:42;;;;;;;48.10;26.50;;;;;;;0.57;65.69;101499.52;103118;1255;109093;-66
2023/02/10 09:16:10;;;;;;;47.90;26.70;;;;;;;0.52;65.78;101503.29;103195;1255;97814;-64
2023/02/10 09:18:37;;;;;;;46.30;26.70;;;;;;;0.48;66.06;101504.02;102322;1256;1003032;-66
2023/02/10 09:21:14;;;;;;;47.40;26.50;;;;;;;0.44;66.27;101500.14;103107;1255;108208;-65
2023/02/10 09:23:41;;;;;;;49.30;27.10;;;;;;;0.42;66.45;101508.14;103421;1260;138638;-66
2023/02/10 09:26:10;;;;;;;50.00;26.70;;;;;;;0.44;66.69;101504.59;103230;1256;107211;-66
2023/02/10 09:28:41;;;;;;;51.80;27.30;;;;;;;0.48;66.81;101501.95;102976;1256;139008;-67
2023/02/10 09:31:09;;;;;;;52.80;28.30;;;;;;;0.52;66.87;101507.23;103118;1255;111045;-66
2023/02/10 09:33:46;;;;;;;48.40;27.90;;;;;;;0.59;66.83;101513.94;102282;1260;1003769;-65
2023/02/10 09:36:17;;;;;;;50.30;28.10;;;;;;;0.67;67.03;101512.59;103596;1257;138818;-66
2023/02/10 09:38:44;;;;;;;47.80;28.10;;;;;;;0.70;66.96;101515.25;102239;1260;1003347;-65
2023/02/10 09:41:26;;;;;;;46.20;26.20;;;;;;;0.70;67.02;101521.76;102945;1258;139134;-66
2023/02/10 09:44:10;;;;;;;44.90;26.10;;;;;;;0.67;67.05;101527.67;103190;1260;112104;-67
2023/02/10 09:47:00;;;;;;;47.40;25.90;;;;;;;0.66;67.22;101522.68;102851;1258;138627;-67
2023/02/10 09:49:53;;;;;;;47.30;26.80;;;;;;;0.60;67.32;101525.09;103092;1260;98300;-67
2023/02/10 09:52:29;;;;;;;47.90;26.20;;;;;;;0.57;67.43;101527.23;103005;1260;108468;-66
2023/02/10 09:54:57;;;;;;;51.40;25.90;;;;;;;0.57;67.66;101526.04;103004;1261;97804;-67
2023/02/10 09:57:49;;;;;;;49.20;25.60;;;;;;;0.58;67.70;101522.82;103063;1257;110893;-66
2023/02/10 10:00:25;;;;;;;46.80;25.90;;;;;;;0.60;67.74;101510.36;103135;1260;138676;-67
2023/02/10 10:02:56;;;;;;;43.50;25.90;;;;;;;0.61;67.85;101513.30;103077;1259;97882;-67
2023/02/10 10:05:31;;;;;;;50.10;25.50;;;;;;;0.63;67.89;101511.98;102145;1258;1003221;-68
2023/02/10 10:08:05;;;;;;;46.50;25.70;;;;;;;0.67;67.94;101507.30;102304;1261;1003187;-66
2023/02/10 10:10:36;;;;;;;50.60;27.80;;;;;;;0.73;68.05;101506.09;102201;1254;1002701;-65
2023/02/10 10:13:03;;;;;;;42.30;24.40;;;;;;;0.80;68.05;101508.54;102319;1269;1002971;-67
2023/02/10 10:15:40;;;;;;;48.90;26.70;;;;;;;0.84;67.98;101505.39;101484;1260;1003182;-66
2023/02/10 10:18:16;;;;;;;43.90;25.30;;;;;;;0.87;67.99;101506.14;103755;1260;139303;-65
2023/02/10 10:20:57;;;;;;;50.90;24.40;;;;;;;0.89;68.06;101496.95;103320;1260;97804;-65
2023/02/10 10:23:38;;;;;;;46.10;24.40;;;;;;;0.90;68.08;101498.53;102977;1257;138569;-67
2023/02/10 10:26:31;;;;;;;44.90;24.60;;;;;;;0.94;68.17;101499.14;102439;1262;1003703;-66
2023/02/10 10:29:20;;;;;;;43.70;24.80;;;;;;;0.98;68.26;101497.70;103047;1255;138960;-67
2023/02/10 10:31:49;;;;;;;47.00;25.20;;;;;;;1.01;68.34;101513.38;103111;1260;109616;-66
2023/02/10 10:34:19;;;;;;;43.00;24.10;;;;;;;1.01;68.35;101515.60;102841;1260;1015950;-67
2023/02/10 10:36:50;;;;;;;41.80;24.20;;;;;;;1.04;68.42;101509.85;102999;1260;138678;-66
2023/02/10 10:39:25;;;;;;;49.00;25.00;;;;;;;1.03;68.35;101517.55;102979;1259;109433;-66
2023/02/10 10:41:53;;;;;;;42.90;25.70;;;;;;;1.00;68.55;101511.48;102912;1260;138713;-67
2023/02/10 10:44:22;;;;;;;45.00;24.70;;;;;;;0.98;68.55;101517.58;102997;1260;108869;-68
2023/02/10 10:46:51;;;;;;;45.50;24.60;;;;;;;0.97;68.68;101510.01;102971;1260;138729;-68
2023/02/10 10:49:19;;;;;;;47.70;25.50;;;;;;;0.91;68.80;101512.43;103129;1257;112069;-67
2023/02/10 10:51:56;;;;;;;46.30;25.00;;;;;;;0.87;68.89;101511.11;102362;1258;1003105;-67
2023/02/10 10:54:24;;;;;;;45.60;25.20;;;;;;;0.86;69.04;101511.95;103131;1257;138783;-67
2023/02/10 10:56:55;;;;;;;44.60;25.40;;;;;;;0.84;69.16;101519.94;103153;1257;108393;-67
2023/02/10 10:59:28;;;;;;;45.20;24.40;;;;;;;0.81;69.26;101521.91;102992;1260;138957;-67
2023/02/10 11:01:55;;;;;;;48.90;25.50;;;;;;;0.79;69.49;101521.18;103801;1256;110254;-68
2023/02/10 11:04:25;;;;;;;48.20;25.90;;;;;;;0.79;69.70;101520.82;103155;1260;108698;-67
2023/02/10 11:06:54;;;;;;;49.80;26.30;;;;;;;0.80;69.84;101518.46;103557;1258;139248;-67
2023/02/10 11:09:27;;;;;;;49.20;26.70;;;;;;;0.82;69.90;101515.77;103031;1257;108882;-67
2023/02/10 11:12:04;;;;;;;47.50;26.30;;;;;;;0.84;70.02;101514.79;103862;1258;138679;-67
2023/02/10 11:14:40;;;;;;;48.80;26.20;;;;;;;0.85;70.16;101517.39;103299;1260;111332;-67
2023/02/10 11:17:18;;;;;;;51.10;25.80;;;;;;;0.86;70.26;101521.86;102943;1260;138791;-68